sensor_id;sensor_type;location;lat;lon;timestamp;P1;durP1;ratioP1;P2;durP2;ratioP2
77061;SDS011;65989;51.686;5.138;2023-02-12T00:00:38;45.60;;;29.37;;
77061;SDS011;65989;51.686;5.138;2023-02-12T00:03:05;46.30;;;27.75;;
77061;SDS011;65989;51.686;5.138;2023-02-12T00:05:30;27.37;;;18.70;;
77061;SDS011;65989;51.686;5.138;2023-02-12T00:07:56;27.45;;;17.98;;
77061;SDS011;65989;51.686;5.138;2023-02-12T00:10:22;23.07;;;14.87;;
77061;SDS011;65989;51.686;5.138;2023-02-12T00:12:47;24.73;;;15.98;;
77061;SDS011;65989;51.686;5.138;2023-02-12T00:15:13;22.67;;;14.60;;
77061;SDS011;65989;51.686;5.138;2023-02-12T00:17:38;19.17;;;13.13;;
77061;SDS011;65989;51.686;5.138;2023-02-12T00:20:03;20.77;;;14.17;;
77061;SDS011;65989;51.686;5.138;2023-02-12T00:22:29;20.10;;;12.60;;
77061;SDS011;65989;51.686;5.138;2023-02-12T00:24:55;19.10;;;11.80;;
77061;SDS011;65989;51.686;5.138;2023-02-12T00:27:21;15.90;;;10.57;;
77061;SDS011;65989;51.686;5.138;2023-02-12T00:29:47;17.17;;;10.07;;
77061;SDS011;65989;51.686;5.138;2023-02-12T00:32:12;17.33;;;10.80;;
77061;SDS011;65989;51.686;5.138;2023-02-12T00:34:38;15.02;;;9.95;;
77061;SDS011;65989;51.686;5.138;2023-02-12T00:37:04;19.05;;;11.02;;
77061;SDS011;65989;51.686;5.138;2023-02-12T00:39:30;16.87;;;10.63;;
77061;SDS011;65989;51.686;5.138;2023-02-12T00:41:55;18.07;;;10.10;;
77061;SDS011;65989;51.686;5.138;2023-02-12T00:44:21;15.17;;;9.93;;
77061;SDS011;65989;51.686;5.138;2023-02-12T00:46:46;15.40;;;9.83;;
77061;SDS011;65989;51.686;5.138;2023-02-12T00:49:11;16.53;;;9.80;;
77061;SDS011;65989;51.686;5.138;2023-02-12T00:51:38;13.68;;;9.35;;
77061;SDS011;65989;51.686;5.138;2023-02-12T00:54:03;14.13;;;8.97;;
77061;SDS011;65989;51.686;5.138;2023-02-12T00:56:29;22.30;;;10.20;;
77061;SDS011;65989;51.686;5.138;2023-02-12T00:58:54;17.07;;;10.67;;
77061;SDS011;65989;51.686;5.138;2023-02-12T01:01:19;19.03;;;10.07;;
77061;SDS011;65989;51.686;5.138;2023-02-12T01:03:45;15.43;;;9.93;;
77061;SDS011;65989;51.686;5.138;2023-02-12T01:06:10;16.53;;;10.03;;
77061;SDS011;65989;51.686;5.138;2023-02-12T01:08:36;18.57;;;10.57;;
77061;SDS011;65989;51.686;5.138;2023-02-12T01:11:02;14.57;;;9.32;;
77061;SDS011;65989;51.686;5.138;2023-02-12T01:13:29;15.90;;;9.87;;
77061;SDS011;65989;51.686;5.138;2023-02-12T01:16:02;16.77;;;9.95;;
77061;SDS011;65989;51.686;5.138;2023-02-12T01:18:32;15.13;;;9.70;;
77061;SDS011;65989;51.686;5.138;2023-02-12T01:20:57;17.93;;;9.43;;
77061;SDS011;65989;51.686;5.138;2023-02-12T01:23:23;14.88;;;9.00;;
77061;SDS011;65989;51.686;5.138;2023-02-12T01:25:48;18.27;;;10.27;;
77061;SDS011;65989;51.686;5.138;2023-02-12T01:28:14;16.42;;;10.65;;
77061;SDS011;65989;51.686;5.138;2023-02-12T01:30:39;14.77;;;9.93;;
77061;SDS011;65989;51.686;5.138;2023-02-12T01:33:04;17.17;;;9.40;;
77061;SDS011;65989;51.686;5.138;2023-02-12T01:35:30;14.03;;;9.27;;
77061;SDS011;65989;51.686;5.138;2023-02-12T01:37:55;18.00;;;9.57;;
77061;SDS011;65989;51.686;5.138;2023-02-12T01:40:21;16.53;;;10.70;;
77061;SDS011;65989;51.686;5.138;2023-02-12T01:42:46;16.05;;;10.00;;
77061;SDS011;65989;51.686;5.138;2023-02-12T01:47:37;18.17;;;10.50;;
77061;SDS011;65989;51.686;5.138;2023-02-12T01:50:05;17.13;;;10.00;;
77061;SDS011;65989;51.686;5.138;2023-02-12T01:52:34;16.75;;;9.50;;
77061;SDS011;65989;51.686;5.138;2023-02-12T01:55:03;17.73;;;10.77;;
77061;SDS011;65989;51.686;5.138;2023-02-12T01:57:32;22.05;;;11.82;;
77061;SDS011;65989;51.686;5.138;2023-02-12T02:00:00;18.33;;;11.80;;
77061;SDS011;65989;51.686;5.138;2023-02-12T02:02:27;21.33;;;11.70;;
77061;SDS011;65989;51.686;5.138;2023-02-12T02:04:55;16.20;;;11.27;;
77061;SDS011;65989;51.686;5.138;2023-02-12T02:07:23;16.83;;;10.80;;
77061;SDS011;65989;51.686;5.138;2023-02-12T02:09:48;15.90;;;10.45;;
77061;SDS011;65989;51.686;5.138;2023-02-12T02:12:15;16.33;;;10.00;;
77061;SDS011;65989;51.686;5.138;2023-02-12T02:14:59;18.60;;;10.48;;
77061;SDS011;65989;51.686;5.138;2023-02-12T02:34:23;16.42;;;9.52;;
77061;SDS011;65989;51.686;5.138;2023-02-12T02:37:14;14.77;;;9.10;;
77061;SDS011;65989;51.686;5.138;2023-02-12T02:45:03;17.83;;;8.83;;
77061;SDS011;65989;51.686;5.138;2023-02-12T02:47:38;15.25;;;8.85;;
77061;SDS011;65989;51.686;5.138;2023-02-12T02:50:15;15.13;;;8.73;;
77061;SDS011;65989;51.686;5.138;2023-02-12T02:53:24;15.52;;;9.10;;
77061;SDS011;65989;51.686;5.138;2023-02-12T02:55:37;13.57;;;8.60;;
77061;SDS011;65989;51.686;5.138;2023-02-12T02:58:23;15.10;;;9.30;;
77061;SDS011;65989;51.686;5.138;2023-02-12T03:00:57;15.82;;;8.88;;
77061;SDS011;65989;51.686;5.138;2023-02-12T03:03:30;14.43;;;9.25;;
77061;SDS011;65989;51.686;5.138;2023-02-12T03:06:01;15.68;;;9.55;;
77061;SDS011;65989;51.686;5.138;2023-02-12T03:08:35;14.85;;;9.02;;
77061;SDS011;65989;51.686;5.138;2023-02-12T03:11:10;13.00;;;8.77;;
77061;SDS011;65989;51.686;5.138;2023-02-12T03:14:21;14.68;;;9.20;;
77061;SDS011;65989;51.686;5.138;2023-02-12T03:16:53;13.82;;;8.77;;
77061;SDS011;65989;51.686;5.138;2023-02-12T03:19:25;16.17;;;9.77;;
77061;SDS011;65989;51.686;5.138;2023-02-12T03:22:11;14.57;;;9.38;;
77061;SDS011;65989;51.686;5.138;2023-02-12T03:27:13;15.75;;;9.20;;
77061;SDS011;65989;51.686;5.138;2023-02-12T03:29:43;15.18;;;9.27;;
77061;SDS011;65989;51.686;5.138;2023-02-12T03:32:18;17.03;;;9.77;;
77061;SDS011;65989;51.686;5.138;2023-02-12T03:34:53;13.67;;;9.33;;
77061;SDS011;65989;51.686;5.138;2023-02-12T03:37:27;18.17;;;9.73;;
77061;SDS011;65989;51.686;5.138;2023-02-12T03:39:59;15.57;;;9.85;;
77061;SDS011;65989;51.686;5.138;2023-02-12T03:42:38;15.10;;;9.07;;
77061;SDS011;65989;51.686;5.138;2023-02-12T03:51:01;14.68;;;9.50;;
77061;SDS011;65989;51.686;5.138;2023-02-12T03:53:32;18.05;;;12.32;;
77061;SDS011;65989;51.686;5.138;2023-02-12T03:56:00;20.20;;;12.23;;
77061;SDS011;65989;51.686;5.138;2023-02-12T03:58:31;19.55;;;12.30;;
77061;SDS011;65989;51.686;5.138;2023-02-12T04:00:59;96.50;;;49.70;;
77061;SDS011;65989;51.686;5.138;2023-02-12T04:03:25;23.98;;;13.43;;
77061;SDS011;65989;51.686;5.138;2023-02-12T04:05:51;15.73;;;10.23;;
77061;SDS011;65989;51.686;5.138;2023-02-12T04:08:16;17.73;;;10.63;;
77061;SDS011;65989;51.686;5.138;2023-02-12T04:19:04;18.52;;;10.23;;
77061;SDS011;65989;51.686;5.138;2023-02-12T04:27:17;17.08;;;10.10;;
77061;SDS011;65989;51.686;5.138;2023-02-12T04:34:53;17.33;;;10.43;;
77061;SDS011;65989;51.686;5.138;2023-02-12T04:37:31;18.83;;;9.85;;
77061;SDS011;65989;51.686;5.138;2023-02-12T04:40:04;17.63;;;10.35;;
77061;SDS011;65989;51.686;5.138;2023-02-12T04:42:39;17.80;;;10.57;;
77061;SDS011;65989;51.686;5.138;2023-02-12T04:45:10;16.75;;;11.23;;
77061;SDS011;65989;51.686;5.138;2023-02-12T04:47:38;18.65;;;10.23;;
77061;SDS011;65989;51.686;5.138;2023-02-12T04:50:04;17.73;;;10.43;;
77061;SDS011;65989;51.686;5.138;2023-02-12T04:52:30;17.90;;;10.23;;
77061;SDS011;65989;51.686;5.138;2023-02-12T04:54:55;17.43;;;10.90;;
77061;SDS011;65989;51.686;5.138;2023-02-12T04:57:21;17.83;;;10.67;;
77061;SDS011;65989;51.686;5.138;2023-02-12T04:59:46;17.38;;;10.48;;
77061;SDS011;65989;51.686;5.138;2023-02-12T05:02:11;16.87;;;10.67;;
77061;SDS011;65989;51.686;5.138;2023-02-12T05:04:37;18.40;;;9.87;;
77061;SDS011;65989;51.686;5.138;2023-02-12T05:07:02;17.23;;;10.73;;
77061;SDS011;65989;51.686;5.138;2023-02-12T05:09:27;16.20;;;10.23;;
77061;SDS011;65989;51.686;5.138;2023-02-12T05:11:53;15.00;;;9.87;;
77061;SDS011;65989;51.686;5.138;2023-02-12T05:14:18;19.40;;;10.68;;
77061;SDS011;65989;51.686;5.138;2023-02-12T05:16:43;16.07;;;10.17;;
77061;SDS011;65989;51.686;5.138;2023-02-12T05:19:09;16.13;;;10.63;;
77061;SDS011;65989;51.686;5.138;2023-02-12T05:21:35;20.43;;;10.57;;
77061;SDS011;65989;51.686;5.138;2023-02-12T05:24:01;19.00;;;10.82;;
77061;SDS011;65989;51.686;5.138;2023-02-12T05:26:27;17.77;;;10.80;;
77061;SDS011;65989;51.686;5.138;2023-02-12T05:28:53;18.23;;;10.77;;
77061;SDS011;65989;51.686;5.138;2023-02-12T05:31:19;17.90;;;10.70;;
77061;SDS011;65989;51.686;5.138;2023-02-12T05:33:45;16.87;;;10.00;;
77061;SDS011;65989;51.686;5.138;2023-02-12T05:36:13;16.20;;;10.05;;
77061;SDS011;65989;51.686;5.138;2023-02-12T05:38:40;17.70;;;10.68;;
77061;SDS011;65989;51.686;5.138;2023-02-12T05:41:13;17.73;;;10.30;;
77061;SDS011;65989;51.686;5.138;2023-02-12T05:43:41;19.05;;;11.23;;
77061;SDS011;65989;51.686;5.138;2023-02-12T05:46:07;17.25;;;10.70;;
77061;SDS011;65989;51.686;5.138;2023-02-12T05:48:34;19.55;;;11.35;;
77061;SDS011;65989;51.686;5.138;2023-02-12T05:51:10;16.73;;;10.20;;
77061;SDS011;65989;51.686;5.138;2023-02-12T05:53:38;18.30;;;10.75;;
77061;SDS011;65989;51.686;5.138;2023-02-12T05:56:14;18.00;;;10.63;;
77061;SDS011;65989;51.686;5.138;2023-02-12T05:58:42;15.80;;;10.35;;
77061;SDS011;65989;51.686;5.138;2023-02-12T06:01:11;16.93;;;10.40;;
77061;SDS011;65989;51.686;5.138;2023-02-12T06:03:42;18.77;;;10.90;;
77061;SDS011;65989;51.686;5.138;2023-02-12T06:06:07;19.35;;;11.15;;
77061;SDS011;65989;51.686;5.138;2023-02-12T06:08:33;17.33;;;10.70;;
77061;SDS011;65989;51.686;5.138;2023-02-12T06:11:00;18.33;;;10.68;;
77061;SDS011;65989;51.686;5.138;2023-02-12T06:13:27;16.85;;;10.82;;
77061;SDS011;65989;51.686;5.138;2023-02-12T06:15:53;18.07;;;10.57;;
77061;SDS011;65989;51.686;5.138;2023-02-12T06:18:18;20.02;;;11.32;;
77061;SDS011;65989;51.686;5.138;2023-02-12T06:20:43;20.23;;;12.43;;
77061;SDS011;65989;51.686;5.138;2023-02-12T06:23:09;17.10;;;10.60;;
77061;SDS011;65989;51.686;5.138;2023-02-12T06:25:34;20.70;;;11.70;;
77061;SDS011;65989;51.686;5.138;2023-02-12T06:27:59;20.17;;;11.43;;
77061;SDS011;65989;51.686;5.138;2023-02-12T06:30:25;18.00;;;11.17;;
77061;SDS011;65989;51.686;5.138;2023-02-12T06:32:50;17.83;;;10.70;;
77061;SDS011;65989;51.686;5.138;2023-02-12T06:35:16;16.07;;;10.73;;
77061;SDS011;65989;51.686;5.138;2023-02-12T06:37:41;19.60;;;11.17;;
77061;SDS011;65989;51.686;5.138;2023-02-12T06:40:06;20.53;;;11.03;;
77061;SDS011;65989;51.686;5.138;2023-02-12T06:42:32;18.75;;;11.70;;
77061;SDS011;65989;51.686;5.138;2023-02-12T06:44:58;18.93;;;11.33;;
77061;SDS011;65989;51.686;5.138;2023-02-12T06:47:23;16.33;;;11.00;;
77061;SDS011;65989;51.686;5.138;2023-02-12T06:49:48;17.80;;;11.00;;
77061;SDS011;65989;51.686;5.138;2023-02-12T06:52:14;18.50;;;10.70;;
77061;SDS011;65989;51.686;5.138;2023-02-12T06:54:39;20.10;;;10.97;;
77061;SDS011;65989;51.686;5.138;2023-02-12T06:57:05;17.37;;;11.17;;
77061;SDS011;65989;51.686;5.138;2023-02-12T06:59:30;18.40;;;10.87;;
77061;SDS011;65989;51.686;5.138;2023-02-12T07:01:56;20.27;;;10.57;;
77061;SDS011;65989;51.686;5.138;2023-02-12T07:04:21;16.03;;;10.47;;
77061;SDS011;65989;51.686;5.138;2023-02-12T07:06:46;16.97;;;10.67;;
77061;SDS011;65989;51.686;5.138;2023-02-12T07:09:12;20.60;;;10.80;;
77061;SDS011;65989;51.686;5.138;2023-02-12T07:11:37;17.17;;;11.00;;
77061;SDS011;65989;51.686;5.138;2023-02-12T07:14:06;17.97;;;11.03;;
77061;SDS011;65989;51.686;5.138;2023-02-12T07:16:31;20.80;;;10.60;;
77061;SDS011;65989;51.686;5.138;2023-02-12T07:18:57;18.13;;;10.97;;
77061;SDS011;65989;51.686;5.138;2023-02-12T07:21:22;16.03;;;10.40;;
77061;SDS011;65989;51.686;5.138;2023-02-12T07:23:48;17.73;;;10.60;;
77061;SDS011;65989;51.686;5.138;2023-02-12T07:26:14;20.70;;;10.90;;
77061;SDS011;65989;51.686;5.138;2023-02-12T07:28:41;16.98;;;10.68;;
77061;SDS011;65989;51.686;5.138;2023-02-12T07:31:20;18.08;;;10.35;;
77061;SDS011;65989;51.686;5.138;2023-02-12T07:33:47;17.80;;;10.80;;
77061;SDS011;65989;51.686;5.138;2023-02-12T07:36:14;19.20;;;11.43;;
77061;SDS011;65989;51.686;5.138;2023-02-12T07:38:41;17.65;;;11.05;;
77061;SDS011;65989;51.686;5.138;2023-02-12T07:43:33;21.02;;;11.88;;
77061;SDS011;65989;51.686;5.138;2023-02-12T07:46:33;19.13;;;11.33;;
77061;SDS011;65989;51.686;5.138;2023-02-12T07:48:55;18.75;;;11.38;;
77061;SDS011;65989;51.686;5.138;2023-02-12T07:51:22;19.55;;;11.43;;
77061;SDS011;65989;51.686;5.138;2023-02-12T07:53:47;21.13;;;12.33;;
77061;SDS011;65989;51.686;5.138;2023-02-12T07:56:19;18.48;;;11.43;;
77061;SDS011;65989;51.686;5.138;2023-02-12T07:58:47;20.40;;;11.68;;
77061;SDS011;65989;51.686;5.138;2023-02-12T08:01:17;19.52;;;11.85;;
77061;SDS011;65989;51.686;5.138;2023-02-12T08:03:45;21.65;;;12.60;;
77061;SDS011;65989;51.686;5.138;2023-02-12T08:06:17;21.90;;;11.30;;
77061;SDS011;65989;51.686;5.138;2023-02-12T08:08:51;22.70;;;12.68;;
77061;SDS011;65989;51.686;5.138;2023-02-12T08:11:21;19.58;;;12.18;;
77061;SDS011;65989;51.686;5.138;2023-02-12T08:13:47;17.17;;;11.23;;
77061;SDS011;65989;51.686;5.138;2023-02-12T08:16:14;23.20;;;13.50;;
77061;SDS011;65989;51.686;5.138;2023-02-12T08:18:41;21.63;;;12.60;;
77061;SDS011;65989;51.686;5.138;2023-02-12T08:21:08;20.48;;;12.50;;
77061;SDS011;65989;51.686;5.138;2023-02-12T08:23:35;20.00;;;12.40;;
77061;SDS011;65989;51.686;5.138;2023-02-12T08:26:05;20.08;;;12.25;;
77061;SDS011;65989;51.686;5.138;2023-02-12T08:28:36;19.75;;;12.18;;
77061;SDS011;65989;51.686;5.138;2023-02-12T08:31:04;22.07;;;12.77;;
77061;SDS011;65989;51.686;5.138;2023-02-12T08:33:32;19.52;;;12.23;;
77061;SDS011;65989;51.686;5.138;2023-02-12T08:36:05;19.83;;;12.30;;
77061;SDS011;65989;51.686;5.138;2023-02-12T08:38:35;20.45;;;11.57;;
77061;SDS011;65989;51.686;5.138;2023-02-12T08:41:11;21.45;;;12.45;;
77061;SDS011;65989;51.686;5.138;2023-02-12T08:43:39;20.30;;;11.88;;
77061;SDS011;65989;51.686;5.138;2023-02-12T08:46:06;17.67;;;11.23;;
77061;SDS011;65989;51.686;5.138;2023-02-12T08:48:43;16.63;;;11.37;;
77061;SDS011;65989;51.686;5.138;2023-02-12T08:53:34;17.97;;;11.23;;
77061;SDS011;65989;51.686;5.138;2023-02-12T08:56:01;18.83;;;11.63;;
77061;SDS011;65989;51.686;5.138;2023-02-12T08:58:26;18.60;;;11.50;;
77061;SDS011;65989;51.686;5.138;2023-02-12T09:00:52;21.45;;;12.05;;
77061;SDS011;65989;51.686;5.138;2023-02-12T09:03:17;19.10;;;11.77;;
77061;SDS011;65989;51.686;5.138;2023-02-12T09:05:43;19.27;;;11.30;;
77061;SDS011;65989;51.686;5.138;2023-02-12T09:08:08;17.97;;;10.90;;
77061;SDS011;65989;51.686;5.138;2023-02-12T09:10:37;18.20;;;11.43;;
77061;SDS011;65989;51.686;5.138;2023-02-12T09:13:03;20.13;;;11.43;;
77061;SDS011;65989;51.686;5.138;2023-02-12T09:15:30;21.85;;;11.70;;
77061;SDS011;65989;51.686;5.138;2023-02-12T09:17:56;20.23;;;11.45;;
77061;SDS011;65989;51.686;5.138;2023-02-12T09:20:21;19.77;;;11.60;;
77061;SDS011;65989;51.686;5.138;2023-02-12T09:22:47;20.23;;;11.90;;
77061;SDS011;65989;51.686;5.138;2023-02-12T09:25:12;16.85;;;11.48;;
77061;SDS011;65989;51.686;5.138;2023-02-12T09:27:38;17.43;;;11.00;;
77061;SDS011;65989;51.686;5.138;2023-02-12T09:30:03;18.70;;;10.80;;
77061;SDS011;65989;51.686;5.138;2023-02-12T09:32:29;16.63;;;10.80;;
77061;SDS011;65989;51.686;5.138;2023-02-12T09:34:54;16.40;;;10.60;;
77061;SDS011;65989;51.686;5.138;2023-02-12T09:37:20;16.87;;;10.97;;
77061;SDS011;65989;51.686;5.138;2023-02-12T09:39:45;20.33;;;10.63;;
77061;SDS011;65989;51.686;5.138;2023-02-12T09:42:19;19.13;;;10.77;;
77061;SDS011;65989;51.686;5.138;2023-02-12T09:50:22;18.55;;;10.45;;
77061;SDS011;65989;51.686;5.138;2023-02-12T09:52:50;17.83;;;10.48;;
77061;SDS011;65989;51.686;5.138;2023-02-12T09:55:16;16.30;;;10.97;;
77061;SDS011;65989;51.686;5.138;2023-02-12T09:57:43;16.38;;;10.65;;
77061;SDS011;65989;51.686;5.138;2023-02-12T10:00:17;16.67;;;9.93;;
77061;SDS011;65989;51.686;5.138;2023-02-12T10:02:49;17.73;;;9.90;;
77061;SDS011;65989;51.686;5.138;2023-02-12T10:05:18;15.43;;;9.90;;
77061;SDS011;65989;51.686;5.138;2023-02-12T10:10:46;16.75;;;10.20;;
77061;SDS011;65989;51.686;5.138;2023-02-12T10:18:59;15.82;;;9.55;;
77061;SDS011;65989;51.686;5.138;2023-02-12T10:24:48;17.42;;;9.80;;
77061;SDS011;65989;51.686;5.138;2023-02-12T10:27:35;13.32;;;8.70;;
77061;SDS011;65989;51.686;5.138;2023-02-12T10:30:13;16.87;;;8.53;;
77061;SDS011;65989;51.686;5.138;2023-02-12T10:32:43;14.60;;;9.10;;
77061;SDS011;65989;51.686;5.138;2023-02-12T10:35:12;13.27;;;8.90;;
77061;SDS011;65989;51.686;5.138;2023-02-12T10:37:41;16.40;;;9.57;;
77061;SDS011;65989;51.686;5.138;2023-02-12T10:40:22;14.35;;;8.82;;
77061;SDS011;65989;51.686;5.138;2023-02-12T10:42:54;15.77;;;9.37;;
77061;SDS011;65989;51.686;5.138;2023-02-12T10:45:37;14.23;;;8.88;;
77061;SDS011;65989;51.686;5.138;2023-02-12T10:48:08;17.73;;;8.98;;
77061;SDS011;65989;51.686;5.138;2023-02-12T10:53:15;14.32;;;9.25;;
77061;SDS011;65989;51.686;5.138;2023-02-12T10:55:44;15.97;;;8.87;;
77061;SDS011;65989;51.686;5.138;2023-02-12T10:58:22;15.38;;;10.00;;
77061;SDS011;65989;51.686;5.138;2023-02-12T11:00:56;16.03;;;9.23;;
77061;SDS011;65989;51.686;5.138;2023-02-12T11:03:27;14.95;;;8.32;;
77061;SDS011;65989;51.686;5.138;2023-02-12T11:08:57;15.68;;;9.43;;
77061;SDS011;65989;51.686;5.138;2023-02-12T11:11:29;14.13;;;8.43;;
77061;SDS011;65989;51.686;5.138;2023-02-12T11:14:17;15.40;;;8.97;;
77061;SDS011;65989;51.686;5.138;2023-02-12T11:16:51;12.60;;;8.77;;
77061;SDS011;65989;51.686;5.138;2023-02-12T11:19:23;14.25;;;9.20;;
77061;SDS011;65989;51.686;5.138;2023-02-12T11:21:50;13.23;;;8.52;;
77061;SDS011;65989;51.686;5.138;2023-02-12T11:24:29;13.95;;;8.70;;
77061;SDS011;65989;51.686;5.138;2023-02-12T11:27:17;11.87;;;8.37;;
77061;SDS011;65989;51.686;5.138;2023-02-12T11:29:46;12.63;;;7.97;;
77061;SDS011;65989;51.686;5.138;2023-02-12T11:32:27;13.68;;;8.40;;
77061;SDS011;65989;51.686;5.138;2023-02-12T11:37:43;14.93;;;8.57;;
77061;SDS011;65989;51.686;5.138;2023-02-12T11:40:30;12.43;;;8.02;;
77061;SDS011;65989;51.686;5.138;2023-02-12T11:42:59;14.68;;;8.50;;
77061;SDS011;65989;51.686;5.138;2023-02-12T11:45:31;14.30;;;8.37;;
77061;SDS011;65989;51.686;5.138;2023-02-12T11:48:00;15.10;;;8.25;;
77061;SDS011;65989;51.686;5.138;2023-02-12T11:50:28;16.33;;;9.60;;
77061;SDS011;65989;51.686;5.138;2023-02-12T11:52:59;17.33;;;10.23;;
77061;SDS011;65989;51.686;5.138;2023-02-12T11:55:31;17.73;;;10.15;;
77061;SDS011;65989;51.686;5.138;2023-02-12T11:58:05;21.67;;;10.93;;
77061;SDS011;65989;51.686;5.138;2023-02-12T12:00:43;18.33;;;10.27;;
77061;SDS011;65989;51.686;5.138;2023-02-12T12:08:39;21.48;;;12.02;;
77061;SDS011;65989;51.686;5.138;2023-02-12T12:13:48;22.13;;;11.88;;
77061;SDS011;65989;51.686;5.138;2023-02-12T12:16:36;19.17;;;10.75;;
77061;SDS011;65989;51.686;5.138;2023-02-12T12:19:28;19.40;;;10.65;;
77061;SDS011;65989;51.686;5.138;2023-02-12T12:22:22;17.55;;;10.52;;
77061;SDS011;65989;51.686;5.138;2023-02-12T12:30:39;20.90;;;11.57;;
77061;SDS011;65989;51.686;5.138;2023-02-12T12:33:54;21.17;;;11.50;;
77061;SDS011;65989;51.686;5.138;2023-02-12T12:41:15;25.23;;;15.10;;
77061;SDS011;65989;51.686;5.138;2023-02-12T12:44:14;29.80;;;15.95;;
77061;SDS011;65989;51.686;5.138;2023-02-12T12:57:48;23.95;;;13.77;;
77061;SDS011;65989;51.686;5.138;2023-02-12T13:14:00;22.98;;;13.63;;
77061;SDS011;65989;51.686;5.138;2023-02-12T13:17:03;23.48;;;13.57;;
77061;SDS011;65989;51.686;5.138;2023-02-12T13:23:08;23.23;;;12.80;;
77061;SDS011;65989;51.686;5.138;2023-02-12T13:25:43;22.20;;;12.55;;
77061;SDS011;65989;51.686;5.138;2023-02-12T13:31:03;21.13;;;12.65;;
77061;SDS011;65989;51.686;5.138;2023-02-12T13:33:39;23.13;;;13.48;;
77061;SDS011;65989;51.686;5.138;2023-02-12T13:36:12;23.00;;;13.13;;
77061;SDS011;65989;51.686;5.138;2023-02-12T13:38:39;23.92;;;13.20;;
77061;SDS011;65989;51.686;5.138;2023-02-12T13:41:11;25.73;;;15.48;;
77061;SDS011;65989;51.686;5.138;2023-02-12T13:50:31;25.87;;;15.10;;
77061;SDS011;65989;51.686;5.138;2023-02-12T13:52:48;25.88;;;14.57;;
77061;SDS011;65989;51.686;5.138;2023-02-12T13:55:24;27.23;;;15.25;;
77061;SDS011;65989;51.686;5.138;2023-02-12T14:01:09;31.40;;;17.70;;
77061;SDS011;65989;51.686;5.138;2023-02-12T14:03:36;27.83;;;15.57;;
77061;SDS011;65989;51.686;5.138;2023-02-12T14:06:10;30.67;;;16.10;;
77061;SDS011;65989;51.686;5.138;2023-02-12T14:08:51;34.67;;;18.63;;
77061;SDS011;65989;51.686;5.138;2023-02-12T14:11:32;30.13;;;16.73;;
77061;SDS011;65989;51.686;5.138;2023-02-12T14:13:58;29.43;;;16.63;;
77061;SDS011;65989;51.686;5.138;2023-02-12T14:19:34;25.67;;;14.53;;
77061;SDS011;65989;51.686;5.138;2023-02-12T14:21:57;25.67;;;14.40;;
77061;SDS011;65989;51.686;5.138;2023-02-12T14:27:16;26.05;;;14.25;;
77061;SDS011;65989;51.686;5.138;2023-02-12T14:37:52;25.67;;;14.13;;
77061;SDS011;65989;51.686;5.138;2023-02-12T14:43:03;29.10;;;16.03;;
77061;SDS011;65989;51.686;5.138;2023-02-12T14:45:47;26.88;;;14.77;;
77061;SDS011;65989;51.686;5.138;2023-02-12T14:48:37;28.45;;;15.35;;
77061;SDS011;65989;51.686;5.138;2023-02-12T14:54:24;28.40;;;14.43;;
77061;SDS011;65989;51.686;5.138;2023-02-12T14:56:53;29.15;;;14.80;;
77061;SDS011;65989;51.686;5.138;2023-02-12T14:59:22;26.15;;;13.52;;
77061;SDS011;65989;51.686;5.138;2023-02-12T15:01:49;26.88;;;14.35;;
77061;SDS011;65989;51.686;5.138;2023-02-12T15:04:22;27.77;;;14.63;;
77061;SDS011;65989;51.686;5.138;2023-02-12T15:06:52;26.27;;;13.47;;
77061;SDS011;65989;51.686;5.138;2023-02-12T15:09:31;25.40;;;14.77;;
77061;SDS011;65989;51.686;5.138;2023-02-12T15:12:16;29.00;;;14.73;;
77061;SDS011;65989;51.686;5.138;2023-02-12T15:14:52;28.95;;;15.25;;
77061;SDS011;65989;51.686;5.138;2023-02-12T15:17:27;29.85;;;16.17;;
77061;SDS011;65989;51.686;5.138;2023-02-12T15:19:58;30.93;;;15.10;;
77061;SDS011;65989;51.686;5.138;2023-02-12T15:30:57;28.90;;;16.27;;
77061;SDS011;65989;51.686;5.138;2023-02-12T15:33:33;27.47;;;15.27;;
77061;SDS011;65989;51.686;5.138;2023-02-12T15:36:01;28.25;;;14.57;;
77061;SDS011;65989;51.686;5.138;2023-02-12T15:38:32;27.30;;;14.48;;
77061;SDS011;65989;51.686;5.138;2023-02-12T15:41:01;29.77;;;15.48;;
77061;SDS011;65989;51.686;5.138;2023-02-12T15:43:29;30.40;;;15.27;;
77061;SDS011;65989;51.686;5.138;2023-02-12T15:45:59;27.93;;;14.97;;
77061;SDS011;65989;51.686;5.138;2023-02-12T15:48:30;30.23;;;15.25;;
77061;SDS011;65989;51.686;5.138;2023-02-12T15:51:39;28.17;;;15.38;;
77061;SDS011;65989;51.686;5.138;2023-02-12T15:53:54;28.35;;;15.75;;
77061;SDS011;65989;51.686;5.138;2023-02-12T15:56:21;29.00;;;15.40;;
77061;SDS011;65989;51.686;5.138;2023-02-12T15:58:52;32.80;;;16.77;;
77061;SDS011;65989;51.686;5.138;2023-02-12T16:01:22;30.33;;;15.68;;
77061;SDS011;65989;51.686;5.138;2023-02-12T16:03:54;30.88;;;16.10;;
77061;SDS011;65989;51.686;5.138;2023-02-12T16:06:22;30.95;;;15.80;;
77061;SDS011;65989;51.686;5.138;2023-02-12T16:08:51;27.40;;;15.05;;
77061;SDS011;65989;51.686;5.138;2023-02-12T16:11:25;29.77;;;15.20;;
77061;SDS011;65989;51.686;5.138;2023-02-12T16:13:55;30.77;;;16.20;;
77061;SDS011;65989;51.686;5.138;2023-02-12T16:16:24;33.33;;;16.40;;
77061;SDS011;65989;51.686;5.138;2023-02-12T16:21:40;30.90;;;15.82;;
77061;SDS011;65989;51.686;5.138;2023-02-12T16:24:11;29.70;;;15.77;;
77061;SDS011;65989;51.686;5.138;2023-02-12T16:26:45;34.70;;;17.70;;
77061;SDS011;65989;51.686;5.138;2023-02-12T16:29:14;30.80;;;16.33;;
77061;SDS011;65989;51.686;5.138;2023-02-12T16:31:51;32.65;;;16.85;;
77061;SDS011;65989;51.686;5.138;2023-02-12T16:34:32;34.22;;;17.30;;
77061;SDS011;65989;51.686;5.138;2023-02-12T16:37:00;29.40;;;15.60;;
77061;SDS011;65989;51.686;5.138;2023-02-12T16:42:30;32.92;;;17.60;;
77061;SDS011;65989;51.686;5.138;2023-02-12T16:44:55;32.60;;;17.10;;
77061;SDS011;65989;51.686;5.138;2023-02-12T16:47:22;30.38;;;15.95;;
77061;SDS011;65989;51.686;5.138;2023-02-12T16:49:59;34.53;;;16.95;;
77061;SDS011;65989;51.686;5.138;2023-02-12T16:55:14;32.60;;;16.75;;
77061;SDS011;65989;51.686;5.138;2023-02-12T16:57:41;36.17;;;17.10;;
77061;SDS011;65989;51.686;5.138;2023-02-12T17:00:08;34.28;;;17.30;;
77061;SDS011;65989;51.686;5.138;2023-02-12T17:02:36;32.55;;;17.02;;
77061;SDS011;65989;51.686;5.138;2023-02-12T17:05:02;33.80;;;17.73;;
77061;SDS011;65989;51.686;5.138;2023-02-12T17:07:31;34.38;;;18.50;;
77061;SDS011;65989;51.686;5.138;2023-02-12T17:09:57;37.40;;;19.10;;
77061;SDS011;65989;51.686;5.138;2023-02-12T17:12:23;34.17;;;18.03;;
77061;SDS011;65989;51.686;5.138;2023-02-12T17:14:49;33.95;;;17.40;;
77061;SDS011;65989;51.686;5.138;2023-02-12T17:17:14;36.10;;;17.23;;
77061;SDS011;65989;51.686;5.138;2023-02-12T17:19:40;33.05;;;17.40;;
77061;SDS011;65989;51.686;5.138;2023-02-12T17:22:06;66.17;;;30.67;;
77061;SDS011;65989;51.686;5.138;2023-02-12T17:24:40;35.58;;;18.80;;
77061;SDS011;65989;51.686;5.138;2023-02-12T17:27:05;32.37;;;16.30;;
77061;SDS011;65989;51.686;5.138;2023-02-12T17:29:32;31.88;;;16.88;;
77061;SDS011;65989;51.686;5.138;2023-02-12T17:31:57;32.20;;;17.10;;
77061;SDS011;65989;51.686;5.138;2023-02-12T17:34:23;33.55;;;16.88;;
77061;SDS011;65989;51.686;5.138;2023-02-12T17:36:49;32.90;;;16.05;;
77061;SDS011;65989;51.686;5.138;2023-02-12T17:39:15;32.53;;;17.53;;